Time;durP1;ratioP1;P1;durP2;ratioP2;P2;SDS_P1;SDS_P2;PMS_P1;PMS_P2;Temp;Humidity;BMP_temperature;BMP_pressure;BME280_temperature;BME280_humidity;BME280_pressure;Samples;Min_cycle;Max_cycle;Signal;HPM_P1;HPM_P2
2023/04/18 00:01:39;;;;;;;46.92;22.65;;;;;;;;;;5082035;28;20046;-58
2023/04/18 00:04:05;;;;;;;51.13;27.33;;;;;;;;;;5081736;28;20044;-59
2023/04/18 00:06:31;;;;;;;39.15;21.42;;;;;;;;;;5084192;28;21078;-58
2023/04/18 00:08:57;;;;;;;38.50;22.00;;;;;;;;;;5086120;28;20520;-58
2023/04/18 00:11:23;;;;;;;48.17;25.70;;;;;;;;;;5085842;28;20481;-58
2023/04/18 00:13:49;;;;;;;40.53;21.00;;;;;;;;;;5084171;28;20555;-58
2023/04/18 00:16:16;;;;;;;48.90;28.48;;;;;;;;;;5085122;28;21891;-58
2023/04/18 00:18:42;;;;;;;51.95;27.95;;;;;;;;;;5087598;28;20527;-58
2023/04/18 00:21:08;;;;;;;52.67;26.58;;;;;;;;;;5086505;28;20060;-58
2023/04/18 00:23:34;;;;;;;54.97;26.88;;;;;;;;;;5086963;28;20083;-58
2023/04/18 00:26:01;;;;;;;50.20;26.05;;;;;;;;;;5085400;28;20048;-58
2023/04/18 00:28:27;;;;;;;48.03;28.77;;;;;;;;;;5087383;28;20040;-58
2023/04/18 00:30:53;;;;;;;57.00;28.65;;;;;;;;;;5084281;28;20079;-59
2023/04/18 00:33:19;;;;;;;43.65;24.10;;;;;;;;;;5070744;28;20039;-58
2023/04/18 00:35:45;;;;;;;49.75;26.95;;;;;;;;;;5083984;28;21114;-58
2023/04/18 00:38:11;;;;;;;51.00;24.98;;;;;;;;;;5084366;28;20606;-59
2023/04/18 00:40:38;;;;;;;56.75;28.85;;;;;;;;;;5083018;28;20048;-59
2023/04/18 00:43:04;;;;;;;47.65;28.15;;;;;;;;;;5067488;28;20056;-59
2023/04/18 00:45:30;;;;;;;47.33;25.80;;;;;;;;;;5086882;27;20079;-60
2023/04/18 00:47:56;;;;;;;37.42;18.77;;;;;;;;;;5087738;28;20048;-58
2023/04/18 00:50:23;;;;;;;61.20;31.88;;;;;;;;;;5085176;28;20048;-58
2023/04/18 00:52:50;;;;;;;51.70;28.52;;;;;;;;;;5068248;28;20063;-59
2023/04/18 00:55:17;;;;;;;55.00;30.35;;;;;;;;;;5084595;28;20040;-59
2023/04/18 00:57:43;;;;;;;56.13;27.00;;;;;;;;;;5067676;28;20562;-58
2023/04/18 01:00:09;;;;;;;53.63;29.35;;;;;;;;;;5069708;28;20217;-59
2023/04/18 01:02:36;;;;;;;58.53;31.02;;;;;;;;;;5070352;28;20547;-58
2023/04/18 01:05:02;;;;;;;49.72;30.77;;;;;;;;;;5084111;28;21984;-59
2023/04/18 01:07:32;;;;;;;57.72;29.00;;;;;;;;;;5086130;28;20464;-59
2023/04/18 01:09:59;;;;;;;53.25;30.38;;;;;;;;;;5084267;28;20048;-59
2023/04/18 01:12:25;;;;;;;54.70;31.77;;;;;;;;;;5051452;28;20138;-59
2023/04/18 01:14:51;;;;;;;54.97;31.70;;;;;;;;;;5086089;28;20152;-58
2023/04/18 01:17:18;;;;;;;60.15;30.95;;;;;;;;;;5085347;28;20516;-59
2023/04/18 01:19:47;;;;;;;55.05;27.35;;;;;;;;;;5085426;28;20539;-59
2023/04/18 01:22:13;;;;;;;57.28;31.30;;;;;;;;;;5086011;28;20130;-59
2023/04/18 01:24:39;;;;;;;60.42;31.13;;;;;;;;;;5085065;28;20580;-59
2023/04/18 01:27:06;;;;;;;55.63;30.42;;;;;;;;;;5085266;28;20633;-59
2023/04/18 01:29:32;;;;;;;46.63;25.10;;;;;;;;;;5084206;28;20106;-59
2023/04/18 01:31:58;;;;;;;52.78;29.63;;;;;;;;;;5085552;28;20108;-59
2023/04/18 01:34:24;;;;;;;56.30;29.77;;;;;;;;;;5084962;28;20128;-59
2023/04/18 01:36:50;;;;;;;56.72;32.40;;;;;;;;;;5085817;28;20051;-59
2023/04/18 01:39:17;;;;;;;55.97;28.52;;;;;;;;;;5084104;28;20036;-59
2023/04/18 01:41:43;;;;;;;58.72;31.77;;;;;;;;;;5083008;28;20516;-59
2023/04/18 01:44:09;;;;;;;58.22;30.23;;;;;;;;;;5085671;28;20046;-59
2023/04/18 01:46:35;;;;;;;58.67;32.25;;;;;;;;;;5084485;28;20543;-59
2023/04/18 01:49:01;;;;;;;55.13;29.75;;;;;;;;;;5085234;28;20040;-59
2023/04/18 01:51:27;;;;;;;60.53;27.88;;;;;;;;;;5084699;28;20115;-59
2023/04/18 01:53:54;;;;;;;57.10;29.73;;;;;;;;;;5085203;28;20198;-59
2023/04/18 01:56:20;;;;;;;65.07;33.67;;;;;;;;;;5080623;28;20048;-59
2023/04/18 01:58:46;;;;;;;62.78;31.38;;;;;;;;;;5084191;28;20051;-59
2023/04/18 02:01:12;;;;;;;54.55;28.10;;;;;;;;;;5084938;28;20037;-58
2023/04/18 02:03:38;;;;;;;65.28;29.63;;;;;;;;;;5084112;28;20043;-59
2023/04/18 02:06:05;;;;;;;56.65;31.98;;;;;;;;;;5085105;28;20050;-58
2023/04/18 02:08:34;;;;;;;47.75;24.92;;;;;;;;;;5084536;28;20044;-58
2023/04/18 02:11:00;;;;;;;60.25;29.10;;;;;;;;;;5084835;28;20160;-58
2023/04/18 02:13:26;;;;;;;57.58;33.40;;;;;;;;;;5083154;28;20041;-58
2023/04/18 02:15:53;;;;;;;56.22;29.20;;;;;;;;;;5084544;28;20603;-58
2023/04/18 02:18:20;;;;;;;49.35;27.17;;;;;;;;;;5085397;28;20096;-58
2023/04/18 02:20:47;;;;;;;59.10;31.30;;;;;;;;;;5084473;27;20494;-58
2023/04/18 02:23:13;;;;;;;59.47;35.08;;;;;;;;;;5083987;28;20047;-58
2023/04/18 02:25:40;;;;;;;57.50;32.53;;;;;;;;;;5084097;28;20043;-58
2023/04/18 02:28:06;;;;;;;58.33;29.38;;;;;;;;;;5084836;28;20064;-58
2023/04/18 02:30:32;;;;;;;63.50;33.97;;;;;;;;;;5083131;28;20041;-59
2023/04/18 02:32:58;;;;;;;62.08;34.30;;;;;;;;;;5084271;28;20110;-58
2023/04/18 02:35:24;;;;;;;43.50;22.02;;;;;;;;;;5083115;28;20056;-58
2023/04/18 02:37:50;;;;;;;51.85;30.33;;;;;;;;;;5085014;28;20048;-58
2023/04/18 02:40:17;;;;;;;59.60;33.22;;;;;;;;;;5083630;28;20032;-58
2023/04/18 02:42:43;;;;;;;66.93;34.33;;;;;;;;;;5083415;28;20048;-58
2023/04/18 02:45:10;;;;;;;64.75;33.90;;;;;;;;;;5067453;28;20053;-59
2023/04/18 02:47:36;;;;;;;60.42;31.58;;;;;;;;;;5083969;28;20052;-58
2023/04/18 02:50:03;;;;;;;59.33;30.25;;;;;;;;;;5082910;28;20090;-58
2023/04/18 02:52:30;;;;;;;69.57;36.85;;;;;;;;;;5082431;27;20212;-58
2023/04/18 02:54:56;;;;;;;64.10;35.22;;;;;;;;;;5082728;28;20063;-58
2023/04/18 02:57:22;;;;;;;74.22;39.20;;;;;;;;;;5083667;28;20042;-58
2023/04/18 02:59:49;;;;;;;58.92;34.53;;;;;;;;;;5085222;28;20040;-58
2023/04/18 03:02:15;;;;;;;62.08;33.78;;;;;;;;;;5085026;27;20155;-58
2023/04/18 03:04:41;;;;;;;64.55;30.77;;;;;;;;;;5081838;28;20851;-58
2023/04/18 03:07:07;;;;;;;68.82;35.83;;;;;;;;;;5083141;28;20189;-58
2023/04/18 03:09:33;;;;;;;65.22;32.83;;;;;;;;;;5082880;28;20123;-58
2023/04/18 03:12:01;;;;;;;66.97;37.72;;;;;;;;;;5084284;28;20067;-58
2023/04/18 03:14:27;;;;;;;63.38;33.92;;;;;;;;;;5083610;28;20048;-58
2023/04/18 03:16:53;;;;;;;72.38;35.58;;;;;;;;;;5082933;28;20112;-58
2023/04/18 03:19:20;;;;;;;60.08;34.17;;;;;;;;;;5082996;28;20130;-59
2023/04/18 03:21:46;;;;;;;65.70;36.88;;;;;;;;;;5084012;28;20462;-59
2023/04/18 03:24:12;;;;;;;58.22;33.35;;;;;;;;;;5081882;28;20430;-58
2023/04/18 03:26:38;;;;;;;65.88;35.85;;;;;;;;;;5081810;28;20045;-59
2023/04/18 03:29:05;;;;;;;60.47;31.73;;;;;;;;;;5083543;28;20036;-58
2023/04/18 03:31:32;;;;;;;66.03;34.55;;;;;;;;;;5083561;28;20036;-58
2023/04/18 03:33:58;;;;;;;66.05;32.92;;;;;;;;;;5066491;28;20691;-58
2023/04/18 03:36:26;;;;;;;59.35;30.65;;;;;;;;;;5084992;28;20091;-58
2023/04/18 03:38:52;;;;;;;67.38;31.15;;;;;;;;;;5080019;28;20558;-58
2023/04/18 03:41:18;;;;;;;63.60;33.65;;;;;;;;;;5083405;28;20131;-59
2023/04/18 03:43:44;;;;;;;63.88;30.48;;;;;;;;;;5081733;28;21200;-58
2023/04/18 03:46:10;;;;;;;63.38;34.72;;;;;;;;;;5081364;28;20484;-59
2023/04/18 03:48:36;;;;;;;68.20;36.13;;;;;;;;;;5080730;28;20043;-59
2023/04/18 03:51:02;;;;;;;58.53;31.52;;;;;;;;;;5082585;28;20052;-59
2023/04/18 03:53:28;;;;;;;57.92;34.22;;;;;;;;;;5080564;28;20044;-58
2023/04/18 03:55:54;;;;;;;57.08;31.50;;;;;;;;;;5080899;28;20048;-59
2023/04/18 03:58:22;;;;;;;62.22;33.30;;;;;;;;;;5080254;28;20519;-59
2023/04/18 04:00:49;;;;;;;69.07;32.97;;;;;;;;;;5081169;27;20135;-59
2023/04/18 04:03:15;;;;;;;58.90;34.60;;;;;;;;;;5079897;28;20548;-58
2023/04/18 04:05:41;;;;;;;56.30;30.90;;;;;;;;;;5082090;28;20770;-58
2023/04/18 04:08:07;;;;;;;59.92;31.30;;;;;;;;;;5079427;28;20096;-58
2023/04/18 04:10:33;;;;;;;58.75;33.40;;;;;;;;;;5080036;28;20541;-59
2023/04/18 04:12:59;;;;;;;65.65;32.85;;;;;;;;;;5079507;28;20086;-59
2023/04/18 04:15:25;;;;;;;60.97;33.22;;;;;;;;;;5080651;28;20047;-58
2023/04/18 04:17:51;;;;;;;59.90;30.02;;;;;;;;;;5080713;28;20052;-58
2023/04/18 04:20:22;;;;;;;50.67;23.00;;;;;;;;;;5080754;28;20121;-58
2023/04/18 04:22:49;;;;;;;61.47;33.58;;;;;;;;;;5080894;28;20123;-58
2023/04/18 04:25:16;;;;;;;64.53;34.72;;;;;;;;;;5064527;28;20102;-58
2023/04/18 04:27:43;;;;;;;68.35;31.35;;;;;;;;;;5078832;28;20049;-58
2023/04/18 04:30:09;;;;;;;62.17;29.58;;;;;;;;;;5079674;28;20171;-58
2023/04/18 04:32:37;;;;;;;57.50;30.42;;;;;;;;;;5081665;28;20123;-58
2023/04/18 04:35:04;;;;;;;66.53;32.58;;;;;;;;;;5080489;28;20037;-58
2023/04/18 04:37:32;;;;;;;65.00;35.33;;;;;;;;;;5063667;28;20045;-58
2023/04/18 04:39:59;;;;;;;63.03;32.50;;;;;;;;;;5080859;28;20051;-58
2023/04/18 04:43:52;;;;;;;71.47;33.33;;;;;;;;;;5039196;28;20424;-58
2023/04/18 04:46:18;;;;;;;45.20;23.00;;;;;;;;;;5026421;28;20583;-58
2023/04/18 04:48:45;;;;;;;55.05;28.55;;;;;;;;;;5027561;28;20038;-58
2023/04/18 04:51:11;;;;;;;54.00;32.10;;;;;;;;;;5025551;28;20046;-58
2023/04/18 04:53:37;;;;;;;58.63;34.05;;;;;;;;;;5028331;28;20578;-58
2023/04/18 04:56:03;;;;;;;66.95;34.25;;;;;;;;;;5027997;28;20041;-58
2023/04/18 04:58:29;;;;;;;61.20;31.10;;;;;;;;;;5023595;28;20046;-58
2023/04/18 05:00:56;;;;;;;50.20;26.13;;;;;;;;;;5027659;28;20072;-58
2023/04/18 05:03:22;;;;;;;42.60;22.13;;;;;;;;;;5026402;28;20046;-58
2023/04/18 05:05:48;;;;;;;57.63;29.52;;;;;;;;;;5053275;28;20057;-58
2023/04/18 05:08:14;;;;;;;59.58;32.63;;;;;;;;;;5023787;28;20077;-58
2023/04/18 05:10:42;;;;;;;44.35;20.73;;;;;;;;;;5024583;28;20044;-57
2023/04/18 05:13:08;;;;;;;56.25;29.20;;;;;;;;;;5023674;28;20507;-58
2023/04/18 05:15:34;;;;;;;67.85;36.65;;;;;;;;;;5028393;28;20097;-58
2023/04/18 05:18:00;;;;;;;53.08;25.58;;;;;;;;;;5024824;28;20049;-58
2023/04/18 05:20:26;;;;;;;67.75;35.35;;;;;;;;;;5024232;28;21431;-58
2023/04/18 05:22:52;;;;;;;52.92;30.33;;;;;;;;;;5024713;28;20053;-58
2023/04/18 05:25:19;;;;;;;67.60;38.67;;;;;;;;;;5026492;28;20587;-58
2023/04/18 05:27:45;;;;;;;58.50;32.35;;;;;;;;;;5022907;28;20041;-58
2023/04/18 05:30:12;;;;;;;56.95;26.88;;;;;;;;;;5028291;28;20052;-58
2023/04/18 05:32:38;;;;;;;60.65;34.58;;;;;;;;;;5028602;28;20042;-57
2023/04/18 05:35:07;;;;;;;38.50;22.52;;;;;;;;;;5028906;28;20045;-57
2023/04/18 05:37:33;;;;;;;62.97;32.63;;;;;;;;;;5029835;28;20539;-57
2023/04/18 05:39:59;;;;;;;53.50;30.15;;;;;;;;;;5022518;28;20041;-58
2023/04/18 05:42:25;;;;;;;43.58;22.90;;;;;;;;;;5026547;28;20141;-58
2023/04/18 05:44:51;;;;;;;67.60;36.38;;;;;;;;;;5026530;28;20037;-58
2023/04/18 05:47:17;;;;;;;59.70;33.35;;;;;;;;;;5024230;28;20458;-58
2023/04/18 05:49:43;;;;;;;51.58;28.90;;;;;;;;;;5030103;28;20044;-58
2023/04/18 05:52:10;;;;;;;68.82;32.08;;;;;;;;;;5026762;28;20048;-58
2023/04/18 05:54:36;;;;;;;58.55;32.53;;;;;;;;;;5017593;28;20516;-58
2023/04/18 05:57:02;;;;;;;59.47;33.38;;;;;;;;;;5013968;28;20562;-58
2023/04/18 05:59:28;;;;;;;59.88;30.38;;;;;;;;;;5004751;28;20104;-58
2023/04/18 06:01:54;;;;;;;65.35;35.00;;;;;;;;;;5011302;28;20157;-58
2023/04/18 06:04:20;;;;;;;63.95;34.63;;;;;;;;;;5011482;28;20112;-58
2023/04/18 06:06:47;;;;;;;60.88;34.53;;;;;;;;;;5008638;28;20040;-59
2023/04/18 06:09:13;;;;;;;47.20;25.73;;;;;;;;;;5013241;28;20554;-58
2023/04/18 06:11:39;;;;;;;52.50;28.13;;;;;;;;;;5045098;28;20038;-58
2023/04/18 06:14:06;;;;;;;56.70;30.60;;;;;;;;;;5008983;28;20030;-58
2023/04/18 06:16:32;;;;;;;61.60;34.15;;;;;;;;;;5012369;28;20042;-59
2023/04/18 06:18:58;;;;;;;65.53;36.30;;;;;;;;;;5011147;28;20046;-59
2023/04/18 06:21:25;;;;;;;62.75;33.22;;;;;;;;;;5008443;28;20046;-58
2023/04/18 06:23:51;;;;;;;60.92;34.58;;;;;;;;;;5011110;28;20042;-58
2023/04/18 06:26:17;;;;;;;60.70;31.85;;;;;;;;;;5010855;28;20065;-58
2023/04/18 06:28:43;;;;;;;60.50;31.90;;;;;;;;;;5005577;28;20386;-58
2023/04/18 06:31:10;;;;;;;60.85;28.80;;;;;;;;;;5010502;28;20045;-59
2023/04/18 06:33:36;;;;;;;58.78;31.98;;;;;;;;;;5012457;28;20037;-58
2023/04/18 06:36:02;;;;;;;59.33;33.42;;;;;;;;;;5011292;28;20050;-59
2023/04/18 06:38:29;;;;;;;51.53;26.85;;;;;;;;;;5007384;28;20125;-60
2023/04/18 06:40:55;;;;;;;50.30;28.67;;;;;;;;;;5011875;28;20042;-58
2023/04/18 06:43:21;;;;;;;55.53;29.77;;;;;;;;;;5014731;28;20064;-58
2023/04/18 06:45:47;;;;;;;38.65;22.08;;;;;;;;;;5015848;28;20060;-58
2023/04/18 06:48:13;;;;;;;55.15;29.63;;;;;;;;;;5013369;28;20117;-59
2023/04/18 06:50:39;;;;;;;64.45;32.20;;;;;;;;;;5016041;28;21201;-59
2023/04/18 06:53:05;;;;;;;55.72;29.98;;;;;;;;;;5014706;28;20042;-59
2023/04/18 06:55:32;;;;;;;56.80;33.00;;;;;;;;;;5014287;28;20108;-59
2023/04/18 06:57:59;;;;;;;43.33;22.23;;;;;;;;;;5046323;28;20621;-58
2023/04/18 07:00:25;;;;;;;57.85;32.70;;;;;;;;;;5015118;28;20129;-58
2023/04/18 07:02:51;;;;;;;62.60;36.15;;;;;;;;;;5015372;28;20156;-59
2023/04/18 07:05:17;;;;;;;51.13;31.73;;;;;;;;;;5016282;28;20042;-59
2023/04/18 07:07:43;;;;;;;68.50;37.80;;;;;;;;;;5047124;28;20107;-59
2023/04/18 07:10:10;;;;;;;58.08;32.90;;;;;;;;;;5015713;28;20073;-59
2023/04/18 07:12:36;;;;;;;53.30;29.23;;;;;;;;;;5014708;28;20045;-59
2023/04/18 07:15:03;;;;;;;58.70;30.00;;;;;;;;;;5015057;28;20045;-59
2023/04/18 07:17:29;;;;;;;57.35;31.33;;;;;;;;;;5007594;28;20558;-60
2023/04/18 07:19:55;;;;;;;50.83;27.63;;;;;;;;;;5015692;28;20145;-59
2023/04/18 07:22:21;;;;;;;53.47;28.67;;;;;;;;;;5014798;28;20053;-59
2023/04/18 07:24:47;;;;;;;64.15;35.42;;;;;;;;;;5015417;28;20297;-59
2023/04/18 07:27:14;;;;;;;42.03;20.65;;;;;;;;;;5044909;28;20077;-59
2023/04/18 07:29:41;;;;;;;38.17;19.17;;;;;;;;;;5014817;28;20046;-59
2023/04/18 07:32:07;;;;;;;50.33;25.23;;;;;;;;;;5012349;28;21156;-60
2023/04/18 07:34:34;;;;;;;48.60;24.05;;;;;;;;;;5015118;28;20507;-59
2023/04/18 07:37:01;;;;;;;55.47;31.30;;;;;;;;;;5015164;28;20054;-59
2023/04/18 07:39:27;;;;;;;51.10;26.55;;;;;;;;;;5007787;28;20037;-59
2023/04/18 07:41:53;;;;;;;43.38;22.83;;;;;;;;;;5013540;28;20539;-59
2023/04/18 07:44:20;;;;;;;55.72;29.70;;;;;;;;;;5012667;28;20050;-59
2023/04/18 07:46:47;;;;;;;31.42;17.75;;;;;;;;;;5013121;28;20101;-59
2023/04/18 07:49:13;;;;;;;49.72;27.40;;;;;;;;;;5014536;28;20525;-59
2023/04/18 07:51:39;;;;;;;52.25;30.98;;;;;;;;;;5013268;28;20049;-59
2023/04/18 07:54:05;;;;;;;57.25;28.27;;;;;;;;;;5013536;28;20042;-58
2023/04/18 07:56:31;;;;;;;50.17;25.23;;;;;;;;;;5047031;28;20095;-58
2023/04/18 07:58:57;;;;;;;51.75;28.23;;;;;;;;;;5013426;28;20034;-58
2023/04/18 08:01:25;;;;;;;57.38;28.35;;;;;;;;;;5015656;28;20140;-58
2023/04/18 08:03:53;;;;;;;50.67;28.77;;;;;;;;;;5015806;28;20144;-58
2023/04/18 08:06:20;;;;;;;34.75;18.98;;;;;;;;;;5015528;28;20594;-58
2023/04/18 08:08:46;;;;;;;52.58;30.52;;;;;;;;;;5015931;28;20033;-58
2023/04/18 08:11:12;;;;;;;53.35;28.85;;;;;;;;;;5014943;28;20579;-58
2023/04/18 08:13:38;;;;;;;53.85;28.67;;;;;;;;;;5015367;28;20542;-59
2023/04/18 08:16:04;;;;;;;46.28;26.58;;;;;;;;;;5015639;28;20057;-58
2023/04/18 08:18:30;;;;;;;53.53;26.90;;;;;;;;;;5016278;28;20113;-59
2023/04/18 08:20:56;;;;;;;41.30;20.35;;;;;;;;;;5013856;28;20092;-58
2023/04/18 08:23:23;;;;;;;51.58;28.05;;;;;;;;;;5014544;28;20546;-59
2023/04/18 08:25:49;;;;;;;48.65;24.20;;;;;;;;;;5013436;28;20050;-58
2023/04/18 08:28:15;;;;;;;55.45;26.35;;;;;;;;;;5014186;28;20046;-58
2023/04/18 08:30:42;;;;;;;41.55;21.30;;;;;;;;;;5013646;28;20050;-58
2023/04/18 08:33:08;;;;;;;48.75;26.60;;;;;;;;;;5015121;28;20042;-59
2023/04/18 08:35:35;;;;;;;34.53;17.17;;;;;;;;;;5014978;28;20069;-59
2023/04/18 08:38:01;;;;;;;44.63;25.10;;;;;;;;;;5015106;28;20132;-58
2023/04/18 08:40:29;;;;;;;50.42;24.58;;;;;;;;;;5015215;28;20146;-59
2023/04/18 08:42:57;;;;;;;41.90;22.50;;;;;;;;;;5014096;28;20269;-58
2023/04/18 08:45:23;;;;;;;27.83;16.05;;;;;;;;;;5015371;28;20104;-58
2023/04/18 08:47:50;;;;;;;38.50;19.92;;;;;;;;;;5014234;28;20045;-58
2023/04/18 08:50:17;;;;;;;42.17;24.08;;;;;;;;;;5015162;28;20096;-58
2023/04/18 08:52:47;;;;;;;43.45;24.02;;;;;;;;;;5015307;28;20042;-58
2023/04/18 08:55:14;;;;;;;52.45;25.95;;;;;;;;;;5014609;28;20155;-59
2023/04/18 08:57:40;;;;;;;41.13;24.15;;;;;;;;;;5014899;28;20095;-58
2023/04/18 09:00:09;;;;;;;43.03;22.60;;;;;;;;;;5014989;28;20042;-59
2023/04/18 09:02:45;;;;;;;33.53;18.92;;;;;;;;;;5014442;28;20057;-58
2023/04/18 09:05:18;;;;;;;26.90;16.15;;;;;;;;;;5015306;28;20528;-58
2023/04/18 09:07:44;;;;;;;44.40;26.10;;;;;;;;;;5014169;28;20794;-59
2023/04/18 09:10:11;;;;;;;43.00;25.35;;;;;;;;;;5014748;28;20038;-59
2023/04/18 09:12:50;;;;;;;40.35;24.83;;;;;;;;;;5012916;28;20073;-59
2023/04/18 09:15:19;;;;;;;46.58;26.88;;;;;;;;;;5012652;28;20813;-59
2023/04/18 09:17:49;;;;;;;48.33;24.83;;;;;;;;;;5012793;28;20050;-58
2023/04/18 09:20:33;;;;;;;44.60;23.73;;;;;;;;;;5014078;28;20049;-60
2023/04/18 09:22:59;;;;;;;40.38;23.77;;;;;;;;;;5046024;28;20094;-59
2023/04/18 09:25:36;;;;;;;44.33;28.17;;;;;;;;;;5014498;28;20049;-59
2023/04/18 09:28:22;;;;;;;50.00;25.25;;;;;;;;;;5014367;28;21524;-59
2023/04/18 09:30:50;;;;;;;32.50;17.80;;;;;;;;;;5016653;28;20050;-58
2023/04/18 09:33:16;;;;;;;44.67;24.38;;;;;;;;;;5017204;28;20065;-59
2023/04/18 09:35:43;;;;;;;40.75;22.88;;;;;;;;;;5017938;28;20070;-59
2023/04/18 09:38:09;;;;;;;45.58;25.05;;;;;;;;;;5016975;28;20100;-58
2023/04/18 09:40:35;;;;;;;43.35;25.30;;;;;;;;;;5015647;28;20049;-60
2023/04/18 09:43:16;;;;;;;40.28;20.95;;;;;;;;;;5015471;28;20833;-60
2023/04/18 09:45:43;;;;;;;47.03;26.90;;;;;;;;;;5016737;28;20141;-60
2023/04/18 09:48:09;;;;;;;60.60;30.48;;;;;;;;;;5013248;28;20146;-60
2023/04/18 09:50:36;;;;;;;45.15;26.75;;;;;;;;;;5017162;28;20046;-60
2023/04/18 09:53:02;;;;;;;45.25;26.70;;;;;;;;;;5016900;28;20097;-60
2023/04/18 09:55:30;;;;;;;50.50;25.73;;;;;;;;;;5016145;28;20049;-60
2023/04/18 09:57:56;;;;;;;44.10;24.40;;;;;;;;;;5014347;28;20096;-59
2023/04/18 10:00:24;;;;;;;51.15;28.10;;;;;;;;;;5015356;28;20092;-59
2023/04/18 10:03:04;;;;;;;48.30;27.38;;;;;;;;;;5015619;28;20096;-59
2023/04/18 10:05:31;;;;;;;46.22;29.23;;;;;;;;;;5048088;28;21375;-60
2023/04/18 10:07:57;;;;;;;38.15;22.17;;;;;;;;;;5015627;28;20048;-60
2023/04/18 10:10:24;;;;;;;48.55;26.70;;;;;;;;;;5016156;28;20149;-60
2023/04/18 10:12:52;;;;;;;51.47;29.13;;;;;;;;;;5016916;28;20053;-60
2023/04/18 10:15:19;;;;;;;41.28;21.23;;;;;;;;;;5017562;28;20098;-60
2023/04/18 10:17:54;;;;;;;38.30;22.20;;;;;;;;;;5016782;28;20052;-60
2023/04/18 10:20:30;;;;;;;47.90;27.00;;;;;;;;;;5016271;28;20093;-61
2023/04/18 10:22:56;;;;;;;38.60;19.77;;;;;;;;;;5017575;28;20045;-59
2023/04/18 10:25:38;;;;;;;44.10;26.77;;;;;;;;;;5048142;28;20112;-59
2023/04/18 10:28:08;;;;;;;52.85;29.88;;;;;;;;;;5017275;28;20069;-60
2023/04/18 10:30:40;;;;;;;47.25;24.63;;;;;;;;;;5014083;28;20051;-60
2023/04/18 10:33:24;;;;;;;30.85;19.52;;;;;;;;;;5016160;28;20563;-60
2023/04/18 10:35:56;;;;;;;50.15;26.45;;;;;;;;;;5017169;28;20169;-59
2023/04/18 10:38:22;;;;;;;;;;;;;;;;;;5017600;28;20552;-59
2023/04/18 10:40:49;;;;;;;46.50;25.10;;;;;;;;;;5015837;28;20003;-59
2023/04/18 10:43:15;;;;;;;55.97;29.52;;;;;;;;;;5015052;28;21977;-60
2023/04/18 10:45:41;;;;;;;54.03;29.83;;;;;;;;;;5008812;28;20128;-59
2023/04/18 10:48:31;;;;;;;40.53;25.95;;;;;;;;;;5015742;28;20042;-60
2023/04/18 10:51:16;;;;;;;47.85;26.52;;;;;;;;;;5015803;28;20041;-60
2023/04/18 10:53:48;;;;;;;51.78;30.80;;;;;;;;;;5015282;28;20586;-60
2023/04/18 10:56:15;;;;;;;51.63;28.10;;;;;;;;;;5028730;28;20069;-60
2023/04/18 10:58:43;;;;;;;47.33;26.38;;;;;;;;;;5016056;28;20143;-60
2023/04/18 11:01:11;;;;;;;53.00;31.13;;;;;;;;;;5012560;28;20073;-60
2023/04/18 11:03:37;;;;;;;39.20;23.73;;;;;;;;;;5047687;28;21305;-60
2023/04/18 11:06:04;;;;;;;40.78;23.60;;;;;;;;;;5014414;28;20048;-60
2023/04/18 11:08:30;;;;;;;39.38;19.63;;;;;;;;;;5014538;28;20054;-59
2023/04/18 11:10:57;;;;;;;58.90;30.90;;;;;;;;;;5014852;28;20049;-60
2023/04/18 11:13:23;;;;;;;42.05;26.00;;;;;;;;;;5015505;28;20517;-59
2023/04/18 11:15:49;;;;;;;41.72;24.92;;;;;;;;;;5007294;28;20042;-59
2023/04/18 11:18:15;;;;;;;44.83;26.70;;;;;;;;;;5014969;28;20547;-60
2023/04/18 11:20:50;;;;;;;50.25;29.30;;;;;;;;;;5013752;28;20101;-60
2023/04/18 11:23:19;;;;;;;38.88;22.10;;;;;;;;;;5015816;28;20913;-59
2023/04/18 11:25:46;;;;;;;45.80;25.92;;;;;;;;;;5008441;28;20049;-60
2023/04/18 11:28:12;;;;;;;44.65;23.38;;;;;;;;;;5015213;28;20092;-59
2023/04/18 11:30:39;;;;;;;39.65;22.85;;;;;;;;;;5013897;28;20567;-59
2023/04/18 11:33:10;;;;;;;40.17;22.95;;;;;;;;;;5014693;28;20090;-60
2023/04/18 11:35:39;;;;;;;47.38;26.40;;;;;;;;;;5015617;28;20069;-60
2023/04/18 11:38:05;;;;;;;29.75;18.00;;;;;;;;;;5014360;28;20045;-60
2023/04/18 11:40:31;;;;;;;41.83;24.30;;;;;;;;;;5015551;28;20041;-60
2023/04/18 11:43:01;;;;;;;39.83;22.88;;;;;;;;;;5013140;28;20054;-60
2023/04/18 11:45:27;;;;;;;38.53;23.63;;;;;;;;;;5015512;28;20534;-60
2023/04/18 11:47:59;;;;;;;39.13;21.08;;;;;;;;;;5013141;28;21497;-59
2023/04/18 11:50:26;;;;;;;41.85;25.92;;;;;;;;;;5046983;28;20041;-60
2023/04/18 11:52:53;;;;;;;39.58;23.92;;;;;;;;;;5013399;28;20050;-60
2023/04/18 11:55:23;;;;;;;38.65;23.17;;;;;;;;;;5014973;28;20046;-59
2023/04/18 11:57:56;;;;;;;29.33;17.35;;;;;;;;;;5013090;28;20171;-59
2023/04/18 12:00:36;;;;;;;28.77;19.92;;;;;;;;;;5013999;28;20104;-59
2023/04/18 12:03:03;;;;;;;27.85;16.65;;;;;;;;;;5014328;28;20166;-59
2023/04/18 12:05:38;;;;;;;32.72;21.00;;;;;;;;;;5013468;28;20087;-59
2023/04/18 12:08:12;;;;;;;34.03;20.45;;;;;;;;;;5014408;28;20516;-60
2023/04/18 12:10:45;;;;;;;33.13;19.92;;;;;;;;;;5015313;28;20127;-60
2023/04/18 12:13:11;;;;;;;29.88;18.17;;;;;;;;;;5014294;28;20516;-60
2023/04/18 12:15:38;;;;;;;32.65;17.10;;;;;;;;;;5016047;28;20766;-60
2023/04/18 12:18:06;;;;;;;26.27;15.93;;;;;;;;;;5013799;28;20057;-59
2023/04/18 12:20:52;;;;;;;22.38;14.18;;;;;;;;;;5014939;28;20062;-60
2023/04/18 12:23:32;;;;;;;31.25;18.95;;;;;;;;;;5045829;28;20120;-60
2023/04/18 12:26:05;;;;;;;29.55;18.50;;;;;;;;;;5015131;28;20045;-60
2023/04/18 12:28:32;;;;;;;27.90;16.58;;;;;;;;;;5014825;28;20050;-60
2023/04/18 12:30:58;;;;;;;29.27;18.83;;;;;;;;;;5011944;28;20048;-60
2023/04/18 12:33:25;;;;;;;26.48;16.67;;;;;;;;;;5014793;28;20597;-60
2023/04/18 12:35:51;;;;;;;22.55;15.35;;;;;;;;;;5013640;28;21117;-60
2023/04/18 12:38:23;;;;;;;25.17;16.23;;;;;;;;;;5014630;28;20049;-60
2023/04/18 12:40:49;;;;;;;;;;;;;;;;;;5014927;28;20148;-60
2023/04/18 12:43:16;;;;;;;29.00;18.50;;;;;;;;;;5014135;28;19976;-60
2023/04/18 12:45:42;;;;;;;26.88;16.48;;;;;;;;;;5013859;28;20046;-60
2023/04/18 12:48:08;;;;;;;35.17;18.20;;;;;;;;;;5012798;28;20046;-60
2023/04/18 12:50:34;;;;;;;33.03;18.35;;;;;;;;;;5011345;28;20472;-60
2023/04/18 12:53:01;;;;;;;30.23;18.75;;;;;;;;;;5011978;28;20092;-60
2023/04/18 12:55:28;;;;;;;29.75;18.50;;;;;;;;;;5012155;28;20389;-60
2023/04/18 12:57:54;;;;;;;33.55;18.50;;;;;;;;;;5013472;28;20053;-60
2023/04/18 13:00:22;;;;;;;28.30;18.73;;;;;;;;;;5013323;28;20598;-60
2023/04/18 13:02:48;;;;;;;28.20;17.90;;;;;;;;;;5014202;28;20050;-60
2023/04/18 13:05:15;;;;;;;26.73;16.58;;;;;;;;;;5015565;28;20050;-60
2023/04/18 13:07:41;;;;;;;27.73;16.77;;;;;;;;;;5017542;28;20057;-59
2023/04/18 13:10:11;;;;;;;28.80;17.20;;;;;;;;;;5016927;28;20034;-60
2023/04/18 13:12:38;;;;;;;29.92;16.85;;;;;;;;;;5014437;28;20058;-60
2023/04/18 13:15:05;;;;;;;26.67;16.58;;;;;;;;;;5015364;28;20685;-60
2023/04/18 13:17:32;;;;;;;25.77;15.68;;;;;;;;;;5018658;28;20038;-59
2023/04/18 13:19:58;;;;;;;29.05;16.45;;;;;;;;;;5015818;28;20124;-60
2023/04/18 13:22:27;;;;;;;25.00;15.73;;;;;;;;;;5031046;28;20336;-60
2023/04/18 13:24:53;;;;;;;29.70;14.95;;;;;;;;;;5016327;28;20053;-60
2023/04/18 13:27:19;;;;;;;26.45;16.83;;;;;;;;;;5016854;28;20037;-60
2023/04/18 13:29:45;;;;;;;25.58;17.58;;;;;;;;;;5046959;28;20065;-60
2023/04/18 13:32:12;;;;;;;27.20;15.93;;;;;;;;;;5016421;28;20140;-60
2023/04/18 13:34:39;;;;;;;24.02;16.27;;;;;;;;;;5008978;28;20042;-60
2023/04/18 13:37:05;;;;;;;29.23;14.60;;;;;;;;;;5015473;28;20052;-59
2023/04/18 13:39:32;;;;;;;23.85;15.38;;;;;;;;;;5015856;28;20483;-60
2023/04/18 13:41:58;;;;;;;24.60;16.08;;;;;;;;;;5015852;28;20162;-60
2023/04/18 13:44:24;;;;;;;22.65;15.25;;;;;;;;;;5015365;28;20053;-60
2023/04/18 13:46:51;;;;;;;25.15;15.82;;;;;;;;;;5017100;28;20049;-59
2023/04/18 13:49:17;;;;;;;23.45;15.73;;;;;;;;;;5016735;28;20041;-60
2023/04/18 13:51:43;;;;;;;22.70;14.85;;;;;;;;;;5015343;28;20038;-60
2023/04/18 13:54:13;;;;;;;24.63;17.00;;;;;;;;;;5048347;28;20066;-59
2023/04/18 13:56:39;;;;;;;28.38;15.85;;;;;;;;;;5017543;28;20100;-61
2023/04/18 13:59:05;;;;;;;23.40;16.50;;;;;;;;;;5016322;28;20659;-60
2023/04/18 14:01:31;;;;;;;25.10;17.70;;;;;;;;;;5014747;28;20073;-60
2023/04/18 14:03:57;;;;;;;23.13;13.95;;;;;;;;;;5016299;28;20042;-60
2023/04/18 14:06:26;;;;;;;23.45;16.38;;;;;;;;;;5016113;28;20037;-60
2023/04/18 14:08:52;;;;;;;21.95;14.88;;;;;;;;;;5047892;28;20528;-59
2023/04/18 14:11:19;;;;;;;20.42;14.63;;;;;;;;;;5016895;28;20125;-60
2023/04/18 14:13:45;;;;;;;24.00;14.65;;;;;;;;;;5016515;28;20052;-60
2023/04/18 14:16:11;;;;;;;24.33;14.20;;;;;;;;;;5016269;28;20042;-60
2023/04/18 14:18:37;;;;;;;21.05;14.32;;;;;;;;;;5016938;28;20173;-60
2023/04/18 14:21:03;;;;;;;23.80;11.88;;;;;;;;;;5016952;28;20038;-60